Time;durP1;ratioP1;P1;durP2;ratioP2;P2;SDS_P1;SDS_P2;PMS_P1;PMS_P2;Temp;Humidity;BMP_temperature;BMP_pressure;BME280_temperature;BME280_humidity;BME280_pressure;Samples;Min_cycle;Max_cycle;Signal;HPM_P1;HPM_P2
2022/10/09 00:00:08;;;;;;;14.27;8.02;;;7.40;99.90;;;;;;4957318;28;20058;-65
2022/10/09 00:02:33;;;;;;;13.48;7.72;;;7.40;99.90;;;;;;4954837;28;20114;-65
2022/10/09 00:04:59;;;;;;;13.23;8.10;;;7.40;99.90;;;;;;4957907;28;20716;-65
2022/10/09 00:07:24;;;;;;;16.25;7.95;;;7.40;99.90;;;;;;4956964;28;20751;-65
2022/10/09 00:09:50;;;;;;;11.98;6.80;;;7.40;99.90;;;;;;4958582;28;20408;-65
2022/10/09 00:12:15;;;;;;;11.32;6.68;;;7.40;99.90;;;;;;4955264;28;20125;-65
2022/10/09 00:14:41;;;;;;;14.80;6.72;;;7.50;99.90;;;;;;4955961;28;20043;-65
2022/10/09 00:17:07;;;;;;;11.70;6.88;;;7.30;99.90;;;;;;4957211;28;20039;-66
2022/10/09 00:19:32;;;;;;;12.15;7.28;;;7.20;99.90;;;;;;4961284;28;20502;-65
2022/10/09 00:21:58;;;;;;;13.32;7.80;;;7.30;99.90;;;;;;4959491;28;20555;-66
2022/10/09 00:24:23;;;;;;;12.10;7.13;;;7.30;99.90;;;;;;4960266;28;20404;-66
2022/10/09 00:26:49;;;;;;;10.77;6.78;;;7.20;99.90;;;;;;4961649;28;20556;-65
2022/10/09 00:29:14;;;;;;;9.98;6.32;;;7.10;99.90;;;;;;4962714;28;20497;-66
2022/10/09 00:31:40;;;;;;;11.25;6.63;;;7.10;99.90;;;;;;4956575;28;20635;-66
2022/10/09 00:34:05;;;;;;;11.88;6.63;;;7.10;99.90;;;;;;4962758;28;20375;-66
2022/10/09 00:36:31;;;;;;;10.18;6.28;;;7.00;99.90;;;;;;4955167;28;20035;-65
2022/10/09 00:38:57;;;;;;;12.43;7.20;;;6.90;99.90;;;;;;4956971;28;20041;-66
2022/10/09 00:41:28;;;;;;;12.43;8.20;;;6.90;99.90;;;;;;4959488;28;20043;-65
2022/10/09 00:43:55;;;;;;;13.30;7.78;;;7.00;99.90;;;;;;4961061;28;20034;-65
2022/10/09 00:46:42;;;;;;;11.73;7.68;;;7.00;99.90;;;;;;4953456;28;20118;-66
2022/10/09 00:49:28;;;;;;;11.40;7.25;;;6.90;99.90;;;;;;4960259;28;20368;-66
2022/10/09 00:51:57;;;;;;;11.73;7.50;;;6.80;99.90;;;;;;4960365;28;20034;-65
2022/10/09 00:54:25;;;;;;;10.43;7.05;;;6.90;99.90;;;;;;4953834;28;20034;-65
2022/10/09 00:56:52;;;;;;;10.85;6.90;;;6.90;99.90;;;;;;4956301;28;20674;-65
2022/10/09 00:59:18;;;;;;;10.07;7.20;;;6.90;99.90;;;;;;4953327;28;20648;-65
2022/10/09 01:01:44;;;;;;;12.60;7.15;;;6.90;99.90;;;;;;4960103;28;20562;-65
2022/10/09 01:04:10;;;;;;;14.80;7.53;;;6.90;99.90;;;;;;4955677;28;20057;-65
2022/10/09 01:07:03;;;;;;;12.90;7.22;;;6.90;99.90;;;;;;4960183;28;20034;-66
2022/10/09 01:09:41;;;;;;;11.55;6.70;;;6.90;99.90;;;;;;4956208;28;20027;-65
2022/10/09 01:12:09;;;;;;;11.52;6.60;;;6.90;99.90;;;;;;4955925;28;20041;-65
2022/10/09 01:14:41;;;;;;;11.30;6.50;;;6.80;99.90;;;;;;4956695;28;20035;-66
2022/10/09 01:17:30;;;;;;;12.65;6.25;;;6.80;99.90;;;;;;4955760;28;20041;-65
2022/10/09 01:20:15;;;;;;;12.20;6.95;;;6.70;99.90;;;;;;4959775;28;20027;-66
2022/10/09 01:23:15;;;;;;;10.27;6.63;;;6.80;99.90;;;;;;4952229;28;20428;-66
2022/10/09 01:26:10;;;;;;;14.40;6.93;;;6.80;99.90;;;;;;4958605;28;20085;-65
2022/10/09 01:28:38;;;;;;;9.65;6.55;;;6.70;99.90;;;;;;4949842;28;20022;-65
2022/10/09 01:31:05;;;;;;;9.38;6.43;;;6.70;99.90;;;;;;4957682;28;20061;-65
2022/10/09 01:33:32;;;;;;;11.18;6.55;;;6.60;99.90;;;;;;4963014;28;20526;-65
2022/10/09 01:35:59;;;;;;;11.65;6.50;;;6.60;99.90;;;;;;4955728;28;20450;-65
2022/10/09 01:38:27;;;;;;;11.15;6.53;;;6.60;99.90;;;;;;4957800;28;20113;-65
2022/10/09 01:40:53;;;;;;;10.98;6.80;;;6.80;99.90;;;;;;4956864;28;20031;-65
2022/10/09 01:43:19;;;;;;;11.40;6.70;;;6.70;99.90;;;;;;4956279;28;20492;-65
2022/10/09 01:45:46;;;;;;;10.95;6.45;;;6.60;99.90;;;;;;4960371;28;20056;-66
2022/10/09 01:48:23;;;;;;;13.77;6.78;;;6.50;99.90;;;;;;4954390;28;20043;-65
2022/10/09 01:50:58;;;;;;;10.27;6.47;;;6.50;99.90;;;;;;4954463;28;20129;-65
2022/10/09 01:53:25;;;;;;;9.63;5.93;;;6.60;99.90;;;;;;4957240;28;20086;-65
2022/10/09 01:56:15;;;;;;;11.35;5.95;;;6.50;99.90;;;;;;4956912;28;20056;-65
2022/10/09 01:58:57;;;;;;;12.48;6.43;;;6.50;99.90;;;;;;4958173;28;20522;-66
2022/10/09 02:01:32;;;;;;;9.93;5.97;;;6.50;99.90;;;;;;4955467;28;20492;-66
2022/10/09 02:03:59;;;;;;;10.35;6.10;;;6.60;99.90;;;;;;4958938;28;20039;-66
2022/10/09 02:06:27;;;;;;;10.70;5.97;;;6.50;99.90;;;;;;4957540;28;20041;-64
2022/10/09 02:08:54;;;;;;;12.90;6.40;;;6.50;99.90;;;;;;4956385;28;20045;-65
2022/10/09 02:11:20;;;;;;;9.48;5.80;;;6.50;99.90;;;;;;4955622;28;20474;-66
2022/10/09 02:13:48;;;;;;;10.13;5.82;;;6.50;99.90;;;;;;4954457;28;20712;-65
2022/10/09 02:16:34;;;;;;;8.68;5.93;;;6.50;99.90;;;;;;4955704;28;20053;-65
2022/10/09 02:19:25;;;;;;;11.35;6.45;;;6.40;99.90;;;;;;4955400;28;20478;-66
2022/10/09 02:22:25;;;;;;;12.27;6.22;;;6.40;99.90;;;;;;4955273;28;20111;-65
2022/10/09 02:24:51;;;;;;;9.98;6.00;;;6.40;99.90;;;;;;4955589;28;21015;-66
2022/10/09 02:27:19;;;;;;;12.52;5.72;;;6.50;99.90;;;;;;4955035;28;20023;-66
2022/10/09 02:29:45;;;;;;;10.32;5.97;;;6.40;99.90;;;;;;4955171;28;20117;-65
2022/10/09 02:32:11;;;;;;;8.75;5.90;;;6.30;99.90;;;;;;4954074;28;20038;-66
2022/10/09 02:34:37;;;;;;;10.82;5.78;;;6.40;99.90;;;;;;4957822;28;20105;-66
2022/10/09 02:37:03;;;;;;;11.38;6.45;;;6.40;99.90;;;;;;4955380;28;20697;-65
2022/10/09 02:39:29;;;;;;;8.52;5.55;;;6.30;99.90;;;;;;4956928;28;20062;-66
2022/10/09 02:41:54;;;;;;;11.55;5.60;;;6.30;99.90;;;;;;4958346;28;20094;-66
2022/10/09 02:44:20;;;;;;;9.50;5.45;;;6.30;99.90;;;;;;4960263;28;20058;-66
2022/10/09 02:46:45;;;;;;;12.55;6.18;;;6.20;99.90;;;;;;4959398;28;20102;-66
2022/10/09 02:49:11;;;;;;;9.02;6.07;;;6.30;99.90;;;;;;4960688;28;20058;-65
2022/10/09 02:51:37;;;;;;;12.63;5.80;;;6.30;99.90;;;;;;4962363;28;20555;-66
2022/10/09 02:54:03;;;;;;;12.80;6.95;;;6.20;99.90;;;;;;4959890;28;21542;-66
2022/10/09 02:56:29;;;;;;;12.40;6.65;;;6.30;99.90;;;;;;4957153;28;20043;-66
2022/10/09 02:58:55;;;;;;;10.48;6.25;;;6.30;99.90;;;;;;4959347;28;20050;-66
2022/10/09 03:01:21;;;;;;;8.60;5.63;;;6.30;99.90;;;;;;4955837;28;20123;-66
2022/10/09 03:03:47;;;;;;;10.10;5.97;;;6.10;99.90;;;;;;4957374;28;20198;-66
2022/10/09 03:06:19;;;;;;;10.98;6.10;;;6.20;99.90;;;;;;4959822;28;20125;-66
2022/10/09 03:08:46;;;;;;;9.18;5.97;;;6.20;99.90;;;;;;4961470;28;20150;-66
2022/10/09 03:11:13;;;;;;;12.57;5.90;;;6.20;99.90;;;;;;4960249;28;20462;-66
2022/10/09 03:13:39;;;;;;;11.10;5.78;;;6.20;99.90;;;;;;4952623;28;20063;-66
2022/10/09 03:16:09;;;;;;;10.05;5.35;;;6.20;99.90;;;;;;4961005;28;20475;-66
2022/10/09 03:18:35;;;;;;;9.25;5.53;;;6.20;99.90;;;;;;4957293;28;20035;-65
2022/10/09 03:21:04;;;;;;;9.52;5.35;;;6.20;99.90;;;;;;4953584;28;20039;-66
2022/10/09 03:23:30;;;;;;;11.00;5.53;;;6.20;99.90;;;;;;4962334;28;20697;-66
2022/10/09 03:26:00;;;;;;;9.18;5.65;;;6.20;99.90;;;;;;4964287;28;20031;-65
2022/10/09 03:28:26;;;;;;;11.05;5.78;;;6.20;99.90;;;;;;4956616;28;20043;-66
2022/10/09 03:30:52;;;;;;;11.18;6.20;;;6.00;99.90;;;;;;4962824;28;20043;-66
2022/10/09 03:33:18;;;;;;;7.45;5.22;;;6.00;99.90;;;;;;4959384;28;20062;-66
2022/10/09 03:35:48;;;;;;;13.23;5.70;;;6.10;99.90;;;;;;4959542;28;20066;-66
2022/10/09 03:38:14;;;;;;;11.05;5.60;;;6.10;99.90;;;;;;4961080;28;20052;-65
2022/10/09 03:40:40;;;;;;;10.27;5.75;;;6.10;99.90;;;;;;4961844;28;20950;-65
2022/10/09 03:43:05;;;;;;;10.63;5.43;;;6.10;99.90;;;;;;4962039;28;20138;-66
2022/10/09 03:45:31;;;;;;;9.90;5.78;;;6.10;99.90;;;;;;4956346;28;20031;-66
2022/10/09 03:47:57;;;;;;;11.23;5.78;;;6.10;99.90;;;;;;4960441;28;20276;-66
2022/10/09 03:50:23;;;;;;;13.70;6.00;;;6.10;99.90;;;;;;4960343;28;20371;-65
2022/10/09 03:52:49;;;;;;;9.40;5.68;;;6.10;99.90;;;;;;4958581;28;20468;-66
2022/10/09 03:55:14;;;;;;;9.60;5.82;;;6.10;99.90;;;;;;4961865;28;20042;-66
2022/10/09 03:57:40;;;;;;;13.50;6.28;;;6.10;99.90;;;;;;4959293;28;20034;-66
2022/10/09 04:00:06;;;;;;;9.68;5.82;;;6.10;99.90;;;;;;4960910;28;20034;-65
2022/10/09 04:02:33;;;;;;;11.45;6.40;;;6.20;99.90;;;;;;4960216;28;20101;-66
2022/10/09 04:04:58;;;;;;;11.23;5.55;;;6.20;99.90;;;;;;4960521;28;20035;-66
2022/10/09 04:07:24;;;;;;;9.57;5.90;;;6.20;99.90;;;;;;4958853;28;20453;-66
2022/10/09 04:09:50;;;;;;;13.45;6.45;;;6.10;99.90;;;;;;4960000;28;20683;-66
2022/10/09 04:12:16;;;;;;;11.55;5.88;;;6.20;99.90;;;;;;4961327;28;20044;-66
2022/10/09 04:14:41;;;;;;;9.95;6.47;;;6.20;99.90;;;;;;4954753;28;20098;-66
2022/10/09 04:17:07;;;;;;;11.75;6.38;;;6.30;99.90;;;;;;4957368;28;20456;-66
2022/10/09 04:19:32;;;;;;;10.85;5.82;;;6.30;99.90;;;;;;4958393;28;20039;-66
2022/10/09 04:21:58;;;;;;;11.73;6.00;;;6.30;99.90;;;;;;4957737;28;20300;-66
2022/10/09 04:24:24;;;;;;;8.95;6.05;;;6.30;99.90;;;;;;4957435;28;20061;-66
2022/10/09 04:26:49;;;;;;;8.43;6.38;;;6.40;99.90;;;;;;4955098;28;20089;-66
2022/10/09 04:29:15;;;;;;;8.23;5.85;;;6.30;99.90;;;;;;4952152;28;20547;-66
2022/10/09 04:31:40;;;;;;;7.82;6.15;;;6.30;99.90;;;;;;4958933;28;20535;-66
2022/10/09 04:34:06;;;;;;;10.55;6.30;;;6.30;99.90;;;;;;4955975;28;20039;-66
2022/10/09 04:36:31;;;;;;;8.80;5.90;;;6.30;99.90;;;;;;4958343;28;20038;-66
2022/10/09 04:38:57;;;;;;;10.32;6.05;;;6.20;99.90;;;;;;4959167;28;20031;-65
2022/10/09 04:41:22;;;;;;;9.15;6.55;;;6.20;99.90;;;;;;4953889;28;20028;-66
2022/10/09 04:43:52;;;;;;;11.27;6.72;;;6.20;99.90;;;;;;4958853;28;20033;-66
2022/10/09 04:46:17;;;;;;;9.38;6.15;;;6.00;99.90;;;;;;4960363;28;20570;-66
2022/10/09 04:48:44;;;;;;;12.68;6.75;;;6.10;99.90;;;;;;4955731;28;20049;-65
2022/10/09 04:51:11;;;;;;;9.32;6.30;;;6.10;99.90;;;;;;4952373;28;20050;-65
2022/10/09 04:53:37;;;;;;;10.95;6.18;;;6.10;99.90;;;;;;4955668;28;20118;-66
2022/10/09 04:56:06;;;;;;;11.38;6.13;;;6.00;99.90;;;;;;4958600;28;20517;-66
2022/10/09 04:58:34;;;;;;;9.73;6.32;;;6.00;99.90;;;;;;4960250;28;20746;-66
2022/10/09 05:01:03;;;;;;;11.68;6.55;;;6.00;99.90;;;;;;4960651;28;20046;-66
2022/10/09 05:03:30;;;;;;;13.20;7.03;;;6.00;99.90;;;;;;4958622;28;20050;-66
2022/10/09 05:05:59;;;;;;;12.57;6.68;;;6.00;99.90;;;;;;4958580;28;20049;-66
2022/10/09 05:08:25;;;;;;;10.88;6.85;;;6.00;99.90;;;;;;4958050;28;20035;-66
2022/10/09 05:10:50;;;;;;;14.65;7.72;;;6.00;99.90;;;;;;4959279;28;20407;-66
2022/10/09 05:13:16;;;;;;;10.23;6.78;;;6.00;99.90;;;;;;4958390;28;20042;-66
2022/10/09 05:15:42;;;;;;;12.82;6.57;;;5.80;99.90;;;;;;4960733;28;20039;-66
2022/10/09 05:18:07;;;;;;;12.23;6.95;;;5.90;99.90;;;;;;4959060;28;20508;-66
2022/10/09 05:20:33;;;;;;;15.93;8.63;;;5.90;99.90;;;;;;4959684;28;20061;-66
2022/10/09 05:22:58;;;;;;;12.05;7.28;;;6.00;99.90;;;;;;4955451;28;20031;-66
2022/10/09 05:25:24;;;;;;;14.95;7.07;;;6.00;99.90;;;;;;4954346;28;20217;-65
2022/10/09 05:27:49;;;;;;;11.02;6.97;;;6.00;99.90;;;;;;4957707;28;20118;-66
2022/10/09 05:30:15;;;;;;;10.85;6.82;;;5.90;99.90;;;;;;4961234;28;20042;-66
2022/10/09 05:32:41;;;;;;;9.60;7.13;;;5.90;99.90;;;;;;4959800;28;20456;-66
2022/10/09 05:35:07;;;;;;;10.18;6.95;;;5.90;99.90;;;;;;4958136;28;20040;-66
2022/10/09 05:37:32;;;;;;;13.57;7.97;;;5.90;99.90;;;;;;4955842;28;20093;-66
2022/10/09 05:39:58;;;;;;;10.38;7.07;;;5.90;99.90;;;;;;4961218;28;20134;-66
2022/10/09 05:42:23;;;;;;;13.30;7.55;;;5.80;99.90;;;;;;4957196;28;20057;-66
2022/10/09 05:44:49;;;;;;;13.27;7.65;;;5.90;99.90;;;;;;4958424;28;20042;-66
2022/10/09 05:47:16;;;;;;;15.70;7.75;;;5.80;99.90;;;;;;4957152;28;20072;-66
2022/10/09 05:49:42;;;;;;;10.13;7.30;;;5.90;99.90;;;;;;4959984;28;20119;-66
2022/10/09 05:52:07;;;;;;;12.77;7.60;;;5.90;99.90;;;;;;4951614;28;20770;-65
2022/10/09 05:54:33;;;;;;;10.23;6.82;;;5.90;99.90;;;;;;4954792;28;20114;-65
2022/10/09 05:56:58;;;;;;;10.95;7.30;;;5.90;99.90;;;;;;4955784;28;20121;-66
2022/10/09 05:59:24;;;;;;;13.48;7.45;;;5.80;99.90;;;;;;4958219;28;20066;-66
2022/10/09 06:01:50;;;;;;;15.32;7.15;;;5.90;99.90;;;;;;4961039;28;20039;-66
2022/10/09 06:04:19;;;;;;;12.18;6.93;;;5.90;99.90;;;;;;4958394;28;20030;-66
2022/10/09 06:06:49;;;;;;;8.68;6.80;;;5.80;99.90;;;;;;4961200;28;20043;-66
2022/10/09 06:09:17;;;;;;;12.95;7.20;;;5.90;99.90;;;;;;4953669;28;20129;-65
2022/10/09 06:11:43;;;;;;;14.65;7.72;;;5.90;99.90;;;;;;4955294;28;20190;-66
2022/10/09 06:14:11;;;;;;;16.48;7.82;;;5.90;99.90;;;;;;4951352;28;20044;-66
2022/10/09 06:16:42;;;;;;;12.23;6.70;;;6.00;99.90;;;;;;4958168;28;20039;-62
2022/10/09 06:19:10;;;;;;;12.23;7.22;;;5.90;99.90;;;;;;4956091;28;20712;-61
2022/10/09 06:21:36;;;;;;;13.55;7.70;;;6.10;99.90;;;;;;4955966;28;20744;-62
2022/10/09 06:24:03;;;;;;;9.82;6.93;;;6.10;99.90;;;;;;4956548;28;20197;-62
2022/10/09 06:26:30;;;;;;;10.55;7.50;;;6.10;99.90;;;;;;4958439;28;20061;-62
2022/10/09 06:28:56;;;;;;;9.68;6.90;;;6.10;99.90;;;;;;4957709;28;20054;-62
2022/10/09 06:31:25;;;;;;;26.75;10.77;;;6.20;99.90;;;;;;4955326;28;20472;-62
2022/10/09 06:33:51;;;;;;;11.32;7.78;;;6.30;99.90;;;;;;4957717;28;20043;-62
2022/10/09 06:36:18;;;;;;;11.50;7.60;;;6.30;99.90;;;;;;4955419;28;20031;-62
2022/10/09 06:38:44;;;;;;;13.23;7.85;;;6.30;99.90;;;;;;4958139;28;20046;-63
2022/10/09 06:41:13;;;;;;;16.25;8.55;;;6.40;99.90;;;;;;4952192;28;20122;-62
2022/10/09 06:43:39;;;;;;;12.80;7.90;;;6.50;99.90;;;;;;4957757;28;20042;-62
2022/10/09 06:46:08;;;;;;;16.30;8.38;;;6.50;99.90;;;;;;4956667;28;20046;-62
2022/10/09 06:48:36;;;;;;;15.32;9.07;;;6.50;99.90;;;;;;4955777;28;20039;-62
2022/10/09 06:51:04;;;;;;;12.77;9.02;;;6.60;99.90;;;;;;4951128;28;20739;-62
2022/10/09 06:53:30;;;;;;;13.63;9.05;;;6.70;99.90;;;;;;4952915;28;20547;-62
2022/10/09 06:55:57;;;;;;;13.15;8.82;;;6.70;99.90;;;;;;4955717;28;20049;-63
2022/10/09 06:58:23;;;;;;;16.52;9.48;;;6.80;99.90;;;;;;4956478;28;20452;-62
2022/10/09 07:00:49;;;;;;;17.63;10.02;;;7.00;99.90;;;;;;4954931;28;20039;-62
2022/10/09 07:03:14;;;;;;;14.65;10.68;;;7.10;99.90;;;;;;4958767;28;20045;-62
2022/10/09 07:05:40;;;;;;;16.75;10.73;;;7.10;99.90;;;;;;4958840;28;20034;-63
2022/10/09 07:08:06;;;;;;;16.48;11.18;;;7.30;99.90;;;;;;4958198;28;20043;-62
2022/10/09 07:10:31;;;;;;;20.80;11.10;;;7.40;99.90;;;;;;4957528;28;20031;-62
2022/10/09 07:12:57;;;;;;;22.05;11.50;;;7.40;99.90;;;;;;4952384;28;20090;-62
2022/10/09 07:15:22;;;;;;;19.45;12.35;;;7.50;99.90;;;;;;4951619;28;20111;-63
2022/10/09 07:17:48;;;;;;;16.90;11.43;;;7.60;99.90;;;;;;4957332;28;20436;-63
2022/10/09 07:20:14;;;;;;;19.25;10.85;;;7.60;99.90;;;;;;4957897;28;20774;-62
2022/10/09 07:22:39;;;;;;;18.42;11.48;;;7.80;99.90;;;;;;4955319;28;20047;-62
2022/10/09 07:25:06;;;;;;;15.75;10.35;;;7.90;99.90;;;;;;4958509;28;20694;-62
2022/10/09 07:27:32;;;;;;;13.95;9.93;;;8.00;99.90;;;;;;4961195;28;20031;-63
2022/10/09 07:29:58;;;;;;;16.08;10.77;;;8.10;99.90;;;;;;4959989;28;20395;-63
2022/10/09 07:32:24;;;;;;;16.20;10.73;;;8.10;99.90;;;;;;4955457;28;20052;-61
2022/10/09 07:34:49;;;;;;;14.65;10.20;;;8.30;99.90;;;;;;4958435;28;20489;-62
2022/10/09 07:37:15;;;;;;;18.08;10.10;;;8.30;99.90;;;;;;4959705;28;20049;-62
2022/10/09 07:39:40;;;;;;;23.95;10.50;;;8.40;99.90;;;;;;4960530;28;20136;-63
2022/10/09 07:42:06;;;;;;;18.80;10.13;;;8.40;99.90;;;;;;4959943;28;20098;-62
2022/10/09 07:44:32;;;;;;;16.90;10.52;;;8.50;99.90;;;;;;4962774;28;20042;-62
2022/10/09 07:46:58;;;;;;;18.38;9.77;;;8.60;99.90;;;;;;4958700;28;20043;-63
2022/10/09 07:49:24;;;;;;;13.52;9.13;;;8.70;99.90;;;;;;4963741;28;20070;-62
2022/10/09 07:51:49;;;;;;;16.92;9.07;;;8.90;99.90;;;;;;4960157;28;20035;-63
2022/10/09 07:54:15;;;;;;;14.73;9.68;;;9.00;99.90;;;;;;4953718;28;20074;-63
2022/10/09 07:56:41;;;;;;;20.23;9.93;;;9.00;99.90;;;;;;4959363;28;20077;-63
2022/10/09 07:59:10;;;;;;;19.58;9.90;;;9.10;99.90;;;;;;4959042;28;20038;-62
2022/10/09 08:01:37;;;;;;;16.67;9.75;;;9.30;99.90;;;;;;4956748;28;20039;-62
2022/10/09 08:04:03;;;;;;;16.42;9.77;;;9.40;99.90;;;;;;4960697;28;20113;-62
2022/10/09 08:06:29;;;;;;;36.15;25.42;;;9.40;99.90;;;;;;4952059;28;20070;-63
2022/10/09 08:08:57;;;;;;;22.10;12.18;;;9.50;99.90;;;;;;4960178;28;20764;-62
2022/10/09 08:11:24;;;;;;;15.32;8.57;;;9.60;99.90;;;;;;4957410;28;20761;-64
2022/10/09 08:13:50;;;;;;;15.77;8.52;;;9.70;99.90;;;;;;4953562;28;20109;-64
2022/10/09 08:16:18;;;;;;;14.82;8.18;;;9.70;99.90;;;;;;4957842;28;20043;-62
2022/10/09 08:18:44;;;;;;;11.02;7.20;;;9.90;99.90;;;;;;4959160;28;20693;-63
2022/10/09 08:21:17;;;;;;;17.27;7.00;;;9.90;99.90;;;;;;4952566;28;20043;-62
2022/10/09 08:23:44;;;;;;;12.00;7.05;;;10.00;99.90;;;;;;4959542;28;20124;-63
2022/10/09 08:26:18;;;;;;;17.42;7.53;;;10.10;99.90;;;;;;4957725;28;20041;-63
2022/10/09 08:28:49;;;;;;;12.82;6.57;;;10.20;99.90;;;;;;4957419;28;20118;-63
2022/10/09 08:31:16;;;;;;;14.38;7.00;;;10.30;99.90;;;;;;4955613;28;20054;-62
2022/10/09 08:33:42;;;;;;;10.77;6.28;;;10.40;99.90;;;;;;4960619;28;20127;-63
2022/10/09 08:36:10;;;;;;;14.05;6.00;;;10.40;99.90;;;;;;4954238;28;20642;-63
2022/10/09 08:38:36;;;;;;;14.00;6.20;;;10.50;99.90;;;;;;4954685;28;20364;-62
2022/10/09 08:41:36;;;;;;;11.85;5.20;;;10.50;99.90;;;;;;4960538;28;20522;-62
2022/10/09 08:44:19;;;;;;;12.18;5.28;;;10.60;99.90;;;;;;4952850;28;20491;-62
2022/10/09 08:47:12;;;;;;;10.63;4.57;;;10.80;99.90;;;;;;4957869;28;20100;-62
2022/10/09 08:49:59;;;;;;;7.03;4.32;;;10.90;99.90;;;;;;4955887;28;20122;-63
2022/10/09 08:52:48;;;;;;;10.35;4.22;;;11.00;99.90;;;;;;4956461;28;20053;-63
2022/10/09 08:55:25;;;;;;;12.63;4.05;;;11.00;99.90;;;;;;4959330;28;20129;-62
2022/10/09 08:57:53;;;;;;;9.15;3.60;;;11.10;99.90;;;;;;4958510;28;20102;-62
2022/10/09 09:00:26;;;;;;;10.13;3.60;;;11.20;99.90;;;;;;4957314;28;20035;-62
2022/10/09 09:03:29;;;;;;;11.40;3.80;;;11.30;99.90;;;;;;4952689;28;20174;-62
2022/10/09 09:05:54;;;;;;;9.13;3.10;;;11.40;99.90;;;;;;4950330;28;20559;-63
2022/10/09 09:08:40;;;;;;;9.82;3.22;;;11.50;99.90;;;;;;4957234;28;20122;-63
2022/10/09 09:11:25;;;;;;;6.75;2.80;;;11.60;99.90;;;;;;4958490;28;20122;-63
2022/10/09 09:14:16;;;;;;;10.93;3.20;;;11.60;99.90;;;;;;4955561;28;20090;-63
2022/10/09 09:16:41;;;;;;;11.63;3.17;;;11.60;99.90;;;;;;4957501;28;20099;-62
2022/10/09 09:19:44;;;;;;;6.72;3.10;;;11.70;99.90;;;;;;4955788;28;20671;-62
2022/10/09 09:22:15;;;;;;;12.43;3.17;;;11.90;99.90;;;;;;4951048;28;20098;-63
2022/10/09 09:24:54;;;;;;;9.77;3.10;;;11.90;99.90;;;;;;4957697;28;20035;-63
2022/10/09 09:27:27;;;;;;;7.63;2.83;;;11.90;99.90;;;;;;4959538;28;20452;-62
2022/10/09 09:30:02;;;;;;;12.57;2.88;;;12.00;99.90;;;;;;4958263;28;20703;-63
2022/10/09 09:32:29;;;;;;;8.73;2.72;;;12.20;99.90;;;;;;4975073;28;20506;-63
2022/10/09 09:35:14;;;;;;;9.85;2.67;;;12.30;99.90;;;;;;4956142;28;20038;-63
2022/10/09 09:37:40;;;;;;;9.65;2.55;;;12.40;99.90;;;;;;4957014;28;20113;-63
2022/10/09 09:40:16;;;;;;;6.60;2.63;;;12.40;99.90;;;;;;4954924;28;20117;-63
2022/10/09 09:42:42;;;;;;;9.82;2.75;;;12.40;99.90;;;;;;4957676;28;20035;-63
2022/10/09 09:45:15;;;;;;;10.40;2.78;;;12.50;99.90;;;;;;4957109;28;20684;-63
2022/10/09 09:47:48;;;;;;;7.15;2.70;;;12.50;99.90;;;;;;4954916;28;20106;-62
2022/10/09 09:50:14;;;;;;;6.95;2.50;;;12.60;99.90;;;;;;4953696;28;20649;-64
2022/10/09 09:52:44;;;;;;;6.93;2.65;;;12.60;99.90;;;;;;4958331;28;20134;-63
2022/10/09 09:55:26;;;;;;;8.07;2.25;;;12.60;99.90;;;;;;4954044;28;20693;-63
2022/10/09 09:57:57;;;;;;;8.30;2.28;;;12.70;99.90;;;;;;4958568;28;20046;-63
2022/10/09 10:00:23;;;;;;;6.72;2.70;;;12.80;99.90;;;;;;4956428;28;20066;-63
2022/10/09 10:03:00;;;;;;;6.97;2.50;;;12.90;99.90;;;;;;4956788;28;20062;-62
2022/10/09 10:05:26;;;;;;;8.90;2.63;;;12.90;99.90;;;;;;4955984;28;20103;-62
2022/10/09 10:07:52;;;;;;;12.60;2.90;;;12.90;99.90;;;;;;4960216;28;20035;-63
2022/10/09 10:10:21;;;;;;;8.25;2.55;;;13.00;99.90;;;;;;4960434;28;20043;-63
2022/10/09 10:12:54;;;;;;;9.05;3.15;;;13.10;99.90;;;;;;4957271;28;20676;-64
2022/10/09 10:15:31;;;;;;;6.15;2.20;;;13.20;99.90;;;;;;4954244;28;20117;-62
2022/10/09 10:18:04;;;;;;;7.20;2.63;;;13.10;99.90;;;;;;4953700;28;20498;-63
2022/10/09 10:20:32;;;;;;;7.10;2.25;;;13.20;99.90;;;;;;4952653;28;20495;-62
2022/10/09 10:22:58;;;;;;;4.88;2.22;;;13.20;99.90;;;;;;4954134;28;20138;-63
2022/10/09 10:25:30;;;;;;;7.25;2.67;;;13.20;99.90;;;;;;4954231;28;20042;-63
2022/10/09 10:28:04;;;;;;;9.63;2.38;;;13.30;99.90;;;;;;4956065;28;20098;-62
2022/10/09 10:30:31;;;;;;;7.25;2.30;;;13.30;99.90;;;;;;4959556;28;20145;-62
2022/10/09 10:33:26;;;;;;;8.70;2.60;;;13.40;99.90;;;;;;4956799;28;20126;-63
2022/10/09 10:35:54;;;;;;;9.00;2.80;;;13.40;99.90;;;;;;4952956;28;20053;-62
2022/10/09 10:38:32;;;;;;;8.57;2.42;;;13.50;99.90;;;;;;4954090;28;20251;-62
2022/10/09 10:41:18;;;;;;;6.88;2.30;;;13.40;99.90;;;;;;4954190;28;20645;-62
2022/10/09 10:43:50;;;;;;;8.38;2.78;;;13.50;99.90;;;;;;4959907;28;20122;-63
2022/10/09 10:46:29;;;;;;;7.60;2.45;;;13.60;99.90;;;;;;4957423;28;20047;-63
2022/10/09 10:48:57;;;;;;;7.78;2.55;;;13.50;99.90;;;;;;4954012;28;20069;-65
2022/10/09 10:51:53;;;;;;;6.38;2.33;;;13.60;99.90;;;;;;4973902;28;20501;-65
2022/10/09 10:54:32;;;;;;;11.00;2.33;;;13.80;99.90;;;;;;4955716;28;20050;-66
2022/10/09 10:57:06;;;;;;;5.32;2.45;;;13.70;99.90;;;;;;4957458;28;20110;-65
2022/10/09 10:59:44;;;;;;;5.55;2.10;;;13.80;99.90;;;;;;4955976;28;20446;-66
2022/10/09 11:02:31;;;;;;;5.93;2.15;;;13.80;99.90;;;;;;4954594;28;20065;-66
2022/10/09 11:05:33;;;;;;;6.32;1.98;;;13.90;99.90;;;;;;4958039;28;20031;-66
2022/10/09 11:08:17;;;;;;;7.10;2.50;;;13.90;99.90;;;;;;4957803;28;20046;-66
2022/10/09 11:11:04;;;;;;;9.38;2.67;;;14.00;99.90;;;;;;4959883;28;20038;-65
2022/10/09 11:13:37;;;;;;;8.52;2.33;;;14.20;99.90;;;;;;4960904;28;20614;-66
2022/10/09 11:16:45;;;;;;;9.00;2.22;;;14.40;99.90;;;;;;4961742;28;20044;-66
2022/10/09 11:19:25;;;;;;;5.07;1.90;;;14.20;99.90;;;;;;4949743;28;20047;-66
2022/10/09 11:22:05;;;;;;;10.05;2.38;;;14.10;99.90;;;;;;4959499;28;20034;-65
2022/10/09 11:25:10;;;;;;;4.90;2.00;;;14.10;99.90;;;;;;4957285;28;20162;-66
2022/10/09 11:27:46;;;;;;;4.97;2.10;;;14.10;99.90;;;;;;4946677;28;20114;-66
2022/10/09 11:30:14;;;;;;;5.40;1.92;;;14.10;99.90;;;;;;4959097;28;20030;-66
2022/10/09 11:33:01;;;;;;;7.55;1.95;;;14.30;99.90;;;;;;4959749;28;20050;-66
2022/10/09 11:35:33;;;;;;;6.85;1.95;;;14.30;99.90;;;;;;4961879;28;20054;-66
2022/10/09 11:38:02;;;;;;;4.72;1.92;;;14.40;99.90;;;;;;4958236;28;20032;-65
2022/10/09 11:40:40;;;;;;;4.47;1.73;;;14.40;99.90;;;;;;4954414;28;20051;-65
2022/10/09 11:43:16;;;;;;;5.93;1.85;;;14.40;99.90;;;;;;4956627;28;20445;-66
2022/10/09 11:46:04;;;;;;;4.68;1.92;;;14.50;99.90;;;;;;4961034;28;20435;-66
2022/10/09 11:48:52;;;;;;;7.03;2.00;;;14.80;99.90;;;;;;4954700;28;20062;-66
2022/10/09 11:51:27;;;;;;;4.78;1.90;;;14.80;99.90;;;;;;4960653;28;20121;-66
2022/10/09 11:53:53;;;;;;;7.25;2.00;;;14.60;99.90;;;;;;4958225;28;20349;-66
2022/10/09 11:56:21;;;;;;;9.00;1.90;;;14.60;99.90;;;;;;4953558;28;20038;-66
2022/10/09 11:59:03;;;;;;;3.10;1.70;;;14.60;99.90;;;;;;4955803;28;20043;-66
2022/10/09 12:01:37;;;;;;;7.25;2.13;;;14.60;99.90;;;;;;4958509;28;20054;-66
2022/10/09 12:04:12;;;;;;;4.70;1.90;;;14.70;99.90;;;;;;4959195;28;20492;-66
2022/10/09 12:06:50;;;;;;;5.32;1.75;;;14.70;99.90;;;;;;4959457;28;20046;-66
2022/10/09 12:09:26;;;;;;;4.80;1.75;;;14.80;99.90;;;;;;4953606;28;20047;-66
2022/10/09 12:12:05;;;;;;;5.15;1.83;;;14.90;99.90;;;;;;4960273;28;20098;-66
2022/10/09 12:14:32;;;;;;;8.05;1.90;;;14.90;99.90;;;;;;4949596;28;20038;-66
2022/10/09 12:16:58;;;;;;;4.32;1.45;;;14.90;99.90;;;;;;4958505;28;20038;-66
2022/10/09 12:19:33;;;;;;;6.28;1.80;;;15.10;99.90;;;;;;4955565;28;20487;-66
2022/10/09 12:22:04;;;;;;;5.35;1.67;;;15.00;99.90;;;;;;4959158;28;20541;-66
2022/10/09 12:24:52;;;;;;;3.20;1.65;;;15.00;99.90;;;;;;4956214;28;20023;-67
2022/10/09 12:27:32;;;;;;;3.45;1.40;;;15.10;99.90;;;;;;4954857;28;20368;-67
2022/10/09 12:30:18;;;;;;;7.05;1.80;;;15.00;99.90;;;;;;4946252;28;20054;-66
2022/10/09 12:32:52;;;;;;;5.97;1.60;;;15.10;99.90;;;;;;4955287;28;20051;-66
2022/10/09 12:35:27;;;;;;;2.88;1.40;;;15.10;99.90;;;;;;4957979;28;20065;-66
2022/10/09 12:37:53;;;;;;;8.30;1.58;;;15.00;99.90;;;;;;4955297;28;20027;-66
2022/10/09 12:40:28;;;;;;;6.28;1.38;;;15.00;99.90;;;;;;4957720;28;20030;-66
2022/10/09 12:42:55;;;;;;;5.72;1.55;;;15.00;99.90;;;;;;4958230;28;20547;-67
2022/10/09 12:45:24;;;;;;;4.40;1.55;;;15.20;99.90;;;;;;4958557;28;20552;-66
2022/10/09 12:47:51;;;;;;;4.45;1.60;;;15.10;99.90;;;;;;4958013;28;20458;-67
2022/10/09 12:50:21;;;;;;;5.47;1.67;;;15.20;99.90;;;;;;4955731;28;20517;-67
2022/10/09 12:52:52;;;;;;;5.28;1.70;;;15.20;99.90;;;;;;4953377;28;20093;-66
2022/10/09 12:55:27;;;;;;;6.47;1.80;;;15.30;99.90;;;;;;4962246;28;20383;-66
2022/10/09 12:57:57;;;;;;;5.13;1.67;;;15.20;99.90;;;;;;4959018;28;20046;-66
2022/10/09 13:00:22;;;;;;;3.45;1.40;;;15.10;99.90;;;;;;4957259;28;20037;-67
2022/10/09 13:02:48;;;;;;;3.45;1.50;;;15.10;99.90;;;;;;4955463;28;20043;-66